EGKA METAR and TAF | Updated Today

EGKA METAR

Shoreham Airport

Observation time: 35 min. ago

EGKA 061750Z 20002KT CAVOK 03/02 Q1039

Need help? Read our tutorial on how to read METARs or read the parsed version below.

Shoreham Airport (EGKA) METAR

  • Weather conditions on Mon, 06 Feb 2023 17:50:00 +0000 (35 min. ago):
  • Present conditions: Dry
  • Clouds: Clear skies
  • Visibility: Greater than 10 km
  • Wind: 200 degrees at 2 knots
  • Temperature: 3 celsius
  • Dew point: 2 celsius
  • Pressure: 1039 millibars
  • Remarks: None


Useful to know...

EGKA TAF

Shoreham Airport

TAF EGKA 061657Z 0618/0620 20003KT CAVOK PROB30 0618/0620 9000
Observation time: 88 min. ago
Need help? Read our tutorial on how to read TAFs or read the parsed version below.

Parsed version of TAF for Shoreham Airport (EGKA)

  • From 06 February at 18:00 UTC, to day 06 of the month at 20:00 UTC
  • Visibility: Greater than 10 km
  • Wind: 200 degrees at 3
  • From 06 February at 18:00 UTC, to day 06 of the month at 20:00 UTC
    Probability of 30%
  • Visibility: 9000 meters